TVF7142 LFPO-LFMN
Flight info
| Callsign | TVF7142 |
|---|---|
| Flight time | N/A |
| Altitude | 33000 |
| Route | LATRA DCT LAMUT DCT UTUVA DCT LERGA DCT LIQID DCT LATAM DCT TUNUR DCT NISAR |
| Aircraft | B738/M-SDE2E3FGHIRWXY/LB1 |
Departure
| Time | N/A |
|---|---|
| Airport | Paris-Orly Airport (LFPO) |
Arrival
| Time | 2026-05-07 10:00 |
|---|---|
| Airport | Nice-Côte d'Azur Airport (LFMN) |
| Time | Latitude | Longitude | Altitude | Speed | Heading |
|---|---|---|---|---|---|
| 2026-05-07 09:04 | 48.10865 | 2.50324 | 23975 ft | 435 kts | 161° |
| 2026-05-07 09:04 | 48.07988 | 2.51845 | 24772 ft | 441 kts | 161° |
| 2026-05-07 09:04 | 48.05099 | 2.53313 | 25543 ft | 446 kts | 162° |
| 2026-05-07 09:04 | 48.02158 | 2.54747 | 26272 ft | 451 kts | 162° |
| 2026-05-07 09:05 | 47.99155 | 2.56210 | 26947 ft | 458 kts | 162° |
| 2026-05-07 09:05 | 47.96142 | 2.57692 | 27629 ft | 463 kts | 162° |
| 2026-05-07 09:05 | 47.93046 | 2.59215 | 28304 ft | 468 kts | 162° |
| 2026-05-07 09:05 | 47.89959 | 2.60730 | 28895 ft | 474 kts | 162° |
| 2026-05-07 09:06 | 47.86864 | 2.62246 | 29844 ft | 471 kts | 162° |
| 2026-05-07 09:06 | 47.83752 | 2.63769 | 30764 ft | 467 kts | 162° |
| 2026-05-07 09:06 | 47.80693 | 2.65265 | 31547 ft | 466 kts | 162° |
| 2026-05-07 09:06 | 47.77630 | 2.66762 | 32342 ft | 464 kts | 162° |
| 2026-05-07 09:07 | 47.74575 | 2.68252 | 33000 ft | 465 kts | 162° |
| 2026-05-07 09:07 | 47.71521 | 2.69740 | 33093 ft | 470 kts | 163° |
| 2026-05-07 09:07 | 47.65429 | 2.72708 | 33075 ft | 454 kts | 164° |
| 2026-05-07 09:08 | 47.59466 | 2.75603 | 33074 ft | 450 kts | 164° |
| 2026-05-07 09:08 | 47.53535 | 2.78472 | 33074 ft | 453 kts | 164° |
| 2026-05-07 09:09 | 47.47530 | 2.81373 | 33068 ft | 453 kts | 164° |
| 2026-05-07 09:09 | 47.41575 | 2.84243 | 33058 ft | 453 kts | 164° |
| 2026-05-07 09:10 | 47.35606 | 2.87112 | 33048 ft | 454 kts | 164° |
| 2026-05-07 09:10 | 47.29617 | 2.89985 | 33047 ft | 454 kts | 164° |
| 2026-05-07 09:11 | 47.23637 | 2.92846 | 33047 ft | 454 kts | 164° |
| 2026-05-07 09:11 | 47.17644 | 2.95707 | 33047 ft | 454 kts | 164° |
| 2026-05-07 09:12 | 47.11672 | 2.98550 | 33047 ft | 454 kts | 165° |
| 2026-05-07 09:12 | 47.05610 | 3.01109 | 33047 ft | 453 kts | 167° |
| 2026-05-07 09:13 | 46.99579 | 3.03545 | 33047 ft | 453 kts | 167° |
| 2026-05-07 09:13 | 46.93495 | 3.06041 | 33047 ft | 453 kts | 167° |
| 2026-05-07 09:14 | 46.87442 | 3.08514 | 33047 ft | 453 kts | 167° |
| 2026-05-07 09:14 | 46.81415 | 3.10976 | 33047 ft | 453 kts | 167° |
| 2026-05-07 09:15 | 46.75365 | 3.13442 | 33047 ft | 453 kts | 167° |
| 2026-05-07 09:15 | 46.69307 | 3.15907 | 33047 ft | 453 kts | 167° |
| 2026-05-07 09:16 | 46.63263 | 3.18360 | 33047 ft | 453 kts | 167° |
| 2026-05-07 09:16 | 46.57179 | 3.20825 | 33047 ft | 454 kts | 167° |
| 2026-05-07 09:17 | 46.51119 | 3.23274 | 33047 ft | 454 kts | 167° |
| 2026-05-07 09:17 | 46.45040 | 3.25724 | 33047 ft | 454 kts | 167° |
| 2026-05-07 09:18 | 46.38992 | 3.28158 | 33047 ft | 454 kts | 167° |
| 2026-05-07 09:18 | 46.32930 | 3.30591 | 33047 ft | 454 kts | 167° |
| 2026-05-07 09:19 | 46.26854 | 3.33024 | 33047 ft | 454 kts | 167° |
| 2026-05-07 09:19 | 46.20792 | 3.35445 | 33047 ft | 455 kts | 167° |
| 2026-05-07 09:20 | 46.14694 | 3.37876 | 33047 ft | 455 kts | 167° |
| 2026-05-07 09:20 | 46.08598 | 3.40300 | 33047 ft | 455 kts | 167° |
| 2026-05-07 09:21 | 46.02495 | 3.42722 | 33047 ft | 455 kts | 168° |
| 2026-05-07 09:21 | 45.96419 | 3.45128 | 33047 ft | 454 kts | 168° |
| 2026-05-07 09:22 | 45.90382 | 3.47512 | 33047 ft | 454 kts | 168° |
| 2026-05-07 09:22 | 45.84304 | 3.49931 | 33047 ft | 454 kts | 167° |
| 2026-05-07 09:23 | 45.78248 | 3.52571 | 33047 ft | 455 kts | 166° |
| 2026-05-07 09:23 | 45.72238 | 3.55172 | 33047 ft | 455 kts | 167° |
| 2026-05-07 09:24 | 45.66179 | 3.57780 | 33047 ft | 455 kts | 167° |
| 2026-05-07 09:24 | 45.60148 | 3.60369 | 33047 ft | 455 kts | 167° |
| 2026-05-07 09:25 | 45.54092 | 3.62961 | 33047 ft | 454 kts | 167° |
| 2026-05-07 09:25 | 45.48053 | 3.65539 | 33047 ft | 454 kts | 167° |
| 2026-05-07 09:26 | 45.42028 | 3.68106 | 33047 ft | 453 kts | 167° |
| 2026-05-07 09:26 | 45.36012 | 3.70662 | 33047 ft | 453 kts | 168° |
| 2026-05-07 09:27 | 45.30016 | 3.73311 | 33046 ft | 455 kts | 163° |
| 2026-05-07 09:27 | 45.24710 | 3.78201 | 33047 ft | 469 kts | 137° |
| 2026-05-07 09:28 | 45.22692 | 3.81860 | 33049 ft | 474 kts | 127° |
| 2026-05-07 09:28 | 45.19158 | 3.89745 | 33070 ft | 474 kts | 126° |
| 2026-05-07 09:29 | 45.15527 | 3.97554 | 33114 ft | 489 kts | 126° |
| 2026-05-07 09:29 | 45.11742 | 4.05772 | 32978 ft | 499 kts | 126° |
| 2026-05-07 09:30 | 45.08030 | 4.13857 | 33125 ft | 493 kts | 126° |
| 2026-05-07 09:30 | 45.04228 | 4.21976 | 33171 ft | 494 kts | 129° |
| 2026-05-07 09:30 | 45.02075 | 4.25743 | 33323 ft | 493 kts | 135° |
| 2026-05-07 09:31 | 44.99779 | 4.29300 | 33264 ft | 496 kts | 136° |
| 2026-05-07 09:31 | 44.95149 | 4.36451 | 33468 ft | 494 kts | 136° |
| 2026-05-07 09:32 | 44.90530 | 4.43624 | 33568 ft | 494 kts | 136° |
| 2026-05-07 09:32 | 44.85860 | 4.50793 | 33608 ft | 497 kts | 136° |
| 2026-05-07 09:32 | 44.83538 | 4.54352 | 33784 ft | 495 kts | 136° |
| 2026-05-07 09:33 | 44.81199 | 4.57927 | 33806 ft | 500 kts | 136° |
| 2026-05-07 09:33 | 44.76490 | 4.65104 | 34003 ft | 500 kts | 137° |
| 2026-05-07 09:34 | 44.71774 | 4.72273 | 34077 ft | 499 kts | 137° |
| 2026-05-07 09:34 | 44.67029 | 4.79462 | 34047 ft | 504 kts | 137° |
| 2026-05-07 09:34 | 44.64672 | 4.83028 | 33575 ft | 499 kts | 137° |
| 2026-05-07 09:35 | 44.62350 | 4.86588 | 33085 ft | 491 kts | 136° |
| 2026-05-07 09:35 | 44.60155 | 4.90112 | 33014 ft | 474 kts | 135° |
| 2026-05-07 09:35 | 44.58030 | 4.93564 | 33021 ft | 467 kts | 136° |
| 2026-05-07 09:36 | 44.53683 | 5.00507 | 33020 ft | 478 kts | 136° |
| 2026-05-07 09:36 | 44.49309 | 5.07475 | 33020 ft | 478 kts | 136° |
| 2026-05-07 09:37 | 44.44937 | 5.14428 | 33020 ft | 477 kts | 136° |
| 2026-05-07 09:37 | 44.40569 | 5.21351 | 33020 ft | 478 kts | 136° |
| 2026-05-07 09:37 | 44.38341 | 5.24759 | 32643 ft | 473 kts | 139° |
| 2026-05-07 09:38 | 44.35925 | 5.27816 | 32031 ft | 465 kts | 146° |
| 2026-05-07 09:38 | 44.30903 | 5.33309 | 32019 ft | 467 kts | 147° |
| 2026-05-07 09:39 | 44.25771 | 5.39007 | 32020 ft | 475 kts | 147° |
| 2026-05-07 09:39 | 44.20622 | 5.44657 | 32017 ft | 473 kts | 147° |
| 2026-05-07 09:39 | 44.18026 | 5.47487 | 31436 ft | 471 kts | 147° |
| 2026-05-07 09:40 | 44.15472 | 5.50265 | 30717 ft | 469 kts | 147° |
| 2026-05-07 09:40 | 44.12907 | 5.53051 | 30099 ft | 465 kts | 147° |
| 2026-05-07 09:40 | 44.10400 | 5.55770 | 29463 ft | 462 kts | 147° |
| 2026-05-07 09:40 | 44.07861 | 5.58520 | 28815 ft | 458 kts | 147° |
| 2026-05-07 09:41 | 44.05391 | 5.61189 | 28180 ft | 455 kts | 146° |
| 2026-05-07 09:41 | 44.02898 | 5.63880 | 27536 ft | 451 kts | 146° |
| 2026-05-07 09:41 | 44.00430 | 5.66541 | 26898 ft | 448 kts | 147° |
| 2026-05-07 09:41 | 43.97980 | 5.69179 | 26261 ft | 444 kts | 147° |
| 2026-05-07 09:42 | 43.95558 | 5.71784 | 25630 ft | 440 kts | 147° |
| 2026-05-07 09:42 | 43.93160 | 5.74360 | 25003 ft | 437 kts | 146° |
| 2026-05-07 09:42 | 43.90781 | 5.76911 | 24378 ft | 433 kts | 146° |
| 2026-05-07 09:42 | 43.88430 | 5.79430 | 23759 ft | 430 kts | 146° |
| 2026-05-07 09:43 | 43.86080 | 5.81947 | 23135 ft | 426 kts | 146° |
| 2026-05-07 09:43 | 43.83767 | 5.84423 | 22507 ft | 423 kts | 146° |
| 2026-05-07 09:43 | 43.81444 | 5.86903 | 21887 ft | 419 kts | 146° |
| 2026-05-07 09:43 | 43.79143 | 5.89356 | 21269 ft | 416 kts | 146° |
| 2026-05-07 09:44 | 43.76894 | 5.91752 | 20665 ft | 412 kts | 146° |
| 2026-05-07 09:44 | 43.74693 | 5.94099 | 20064 ft | 390 kts | 146° |
| 2026-05-07 09:44 | 43.72601 | 5.96330 | 19501 ft | 371 kts | 146° |
| 2026-05-07 09:44 | 43.70555 | 5.98498 | 18952 ft | 377 kts | 146° |
| 2026-05-07 09:45 | 43.68485 | 6.00688 | 18388 ft | 376 kts | 146° |
| 2026-05-07 09:45 | 43.66421 | 6.02885 | 17820 ft | 374 kts | 146° |
| 2026-05-07 09:45 | 43.64379 | 6.05070 | 17251 ft | 372 kts | 145° |
| 2026-05-07 09:45 | 43.62356 | 6.07232 | 16691 ft | 371 kts | 144° |
| 2026-05-07 09:46 | 43.60462 | 6.09673 | 16120 ft | 371 kts | 134° |
| 2026-05-07 09:46 | 43.59011 | 6.12600 | 15550 ft | 373 kts | 118° |
| 2026-05-07 09:46 | 43.58039 | 6.15882 | 14991 ft | 372 kts | 111° |
| 2026-05-07 09:46 | 43.57143 | 6.19200 | 14420 ft | 370 kts | 112° |
| 2026-05-07 09:47 | 43.56221 | 6.22479 | 13858 ft | 367 kts | 112° |
| 2026-05-07 09:47 | 43.55307 | 6.25732 | 13302 ft | 365 kts | 112° |
| 2026-05-07 09:47 | 43.54401 | 6.28994 | 12739 ft | 362 kts | 112° |
| 2026-05-07 09:47 | 43.53506 | 6.32223 | 12182 ft | 360 kts | 112° |
| 2026-05-07 09:48 | 43.52623 | 6.35403 | 11640 ft | 356 kts | 112° |
| 2026-05-07 09:48 | 43.51749 | 6.38550 | 11276 ft | 337 kts | 111° |
| 2026-05-07 09:48 | 43.50962 | 6.41394 | 11126 ft | 307 kts | 112° |
| 2026-05-07 09:48 | 43.50021 | 6.43919 | 10829 ft | 289 kts | 128° |
| 2026-05-07 09:49 | 43.48644 | 6.45973 | 10442 ft | 296 kts | 136° |
| 2026-05-07 09:49 | 43.47215 | 6.47996 | 10068 ft | 294 kts | 134° |
| 2026-05-07 09:49 | 43.45843 | 6.50000 | 9929 ft | 282 kts | 134° |
| 2026-05-07 09:49 | 43.44492 | 6.51953 | 9549 ft | 282 kts | 134° |
| 2026-05-07 09:50 | 43.43150 | 6.53884 | 9198 ft | 280 kts | 134° |
| 2026-05-07 09:50 | 43.41810 | 6.55816 | 8850 ft | 277 kts | 134° |
| 2026-05-07 09:50 | 43.40487 | 6.57720 | 8508 ft | 275 kts | 134° |
| 2026-05-07 09:50 | 43.39379 | 6.59833 | 8164 ft | 274 kts | 114° |
| 2026-05-07 09:51 | 43.39018 | 6.62368 | 7831 ft | 271 kts | 87° |
| 2026-05-07 09:51 | 43.39380 | 6.64891 | 7496 ft | 269 kts | 73° |
| 2026-05-07 09:51 | 43.39907 | 6.67351 | 7157 ft | 267 kts | 74° |
| 2026-05-07 09:51 | 43.40409 | 6.69804 | 6823 ft | 266 kts | 74° |
| 2026-05-07 09:52 | 43.40913 | 6.72215 | 6504 ft | 264 kts | 74° |
| 2026-05-07 09:52 | 43.41416 | 6.74613 | 6334 ft | 256 kts | 74° |
| 2026-05-07 09:52 | 43.41919 | 6.77013 | 6260 ft | 265 kts | 74° |
| 2026-05-07 09:52 | 43.42417 | 6.79383 | 6165 ft | 255 kts | 74° |
| 2026-05-07 09:53 | 43.42921 | 6.81785 | 6078 ft | 262 kts | 73° |
| 2026-05-07 09:53 | 43.43406 | 6.84097 | 5880 ft | 245 kts | 73° |
| 2026-05-07 09:53 | 43.43865 | 6.86288 | 5674 ft | 239 kts | 73° |
| 2026-05-07 09:53 | 43.44326 | 6.88490 | 5428 ft | 234 kts | 73° |
| 2026-05-07 09:54 | 43.44769 | 6.90609 | 5180 ft | 227 kts | 74° |
| 2026-05-07 09:54 | 43.45227 | 6.92678 | 4952 ft | 228 kts | 68° |
| 2026-05-07 09:54 | 43.46131 | 6.94444 | 4769 ft | 226 kts | 43° |
| 2026-05-07 09:54 | 43.47275 | 6.95924 | 4600 ft | 227 kts | 44° |
| 2026-05-07 09:55 | 43.48407 | 6.97455 | 4398 ft | 227 kts | 44° |
| 2026-05-07 09:55 | 43.49530 | 6.98980 | 4188 ft | 228 kts | 44° |
| 2026-05-07 09:55 | 43.50655 | 7.00514 | 4008 ft | 224 kts | 44° |
| 2026-05-07 09:55 | 43.51760 | 7.02022 | 3771 ft | 225 kts | 44° |
| 2026-05-07 09:56 | 43.52866 | 7.03533 | 3474 ft | 219 kts | 44° |
| 2026-05-07 09:56 | 43.53902 | 7.04947 | 3201 ft | 205 kts | 45° |
| 2026-05-07 09:56 | 43.54887 | 7.06294 | 2924 ft | 195 kts | 45° |
| 2026-05-07 09:56 | 43.55825 | 7.07577 | 2651 ft | 186 kts | 45° |
| 2026-05-07 09:57 | 43.56719 | 7.08800 | 2390 ft | 177 kts | 45° |
| 2026-05-07 09:57 | 43.57540 | 7.09924 | 2180 ft | 154 kts | 45° |
| 2026-05-07 09:57 | 43.58284 | 7.10942 | 1956 ft | 146 kts | 45° |
| 2026-05-07 09:57 | 43.58995 | 7.11918 | 1800 ft | 142 kts | 45° |
| 2026-05-07 09:58 | 43.59704 | 7.12888 | 1563 ft | 144 kts | 45° |
| 2026-05-07 09:58 | 43.60419 | 7.13867 | 1364 ft | 145 kts | 46° |
| 2026-05-07 09:58 | 43.61134 | 7.14849 | 1165 ft | 144 kts | 46° |
| 2026-05-07 09:58 | 43.61848 | 7.15829 | 971 ft | 145 kts | 46° |
| 2026-05-07 09:59 | 43.62560 | 7.16807 | 777 ft | 143 kts | 46° |
| 2026-05-07 09:59 | 43.63261 | 7.17769 | 587 ft | 143 kts | 46° |
| 2026-05-07 09:59 | 43.63966 | 7.18737 | 397 ft | 143 kts | 46° |
| 2026-05-07 09:59 | 43.64673 | 7.19708 | 207 ft | 143 kts | 46° |
| 2026-05-07 10:00 | 43.65379 | 7.20679 | 30 ft | 142 kts | 46° |
| 2026-05-07 10:00 | 43.65962 | 7.21483 | 22 ft | 75 kts | 46° |
| 2026-05-07 10:00 | 43.66153 | 7.21741 | 22 ft | 15 kts | 36° |
| 2026-05-07 10:00 | 43.66221 | 7.21746 | 24 ft | 6 kts | 319° |
| 2026-05-07 10:01 | 43.66246 | 7.21711 | 24 ft | 4 kts | 314° |
| 2026-05-07 10:01 | 43.66263 | 7.21689 | 24 ft | 3 kts | 315° |
| 2026-05-07 10:01 | 43.66287 | 7.21655 | 25 ft | 5 kts | 314° |
| 2026-05-07 10:01 | 43.66316 | 7.21615 | 28 ft | 6 kts | 316° |
| 2026-05-07 10:02 | 43.66346 | 7.21573 | 30 ft | 6 kts | 315° |
| 2026-05-07 10:02 | 43.66378 | 7.21519 | 32 ft | 7 kts | 307° |
| 2026-05-07 10:02 | 43.66420 | 7.21464 | 33 ft | 9 kts | 318° |
| 2026-05-07 10:02 | 43.66436 | 7.21445 | 33 ft | 0 kts | 320° |
| 2026-05-07 10:03 | 43.66439 | 7.21441 | 34 ft | 0 kts | 320° |
| 2026-05-07 10:03 | 43.66440 | 7.21440 | 34 ft | 0 kts | 319° |